createdAt,value
2022-10-07T00:01:23.599Z,21.03
2022-10-07T00:03:55.324Z,21.05
2022-10-07T00:06:23.643Z,21.03
2022-10-07T00:08:53.694Z,21.00
2022-10-07T00:11:27.188Z,20.96
2022-10-07T00:14:03.578Z,20.85
2022-10-07T00:16:35.280Z,20.91
2022-10-07T00:19:06.584Z,20.98
2022-10-07T00:21:44.588Z,20.95
2022-10-07T00:24:12.226Z,20.94
2022-10-07T00:26:40.323Z,20.99
2022-10-07T00:29:14.434Z,20.95
2022-10-07T00:31:44.545Z,20.90
2022-10-07T00:34:13.568Z,20.91
2022-10-07T00:36:45.414Z,20.89
2022-10-07T00:39:17.790Z,20.90
2022-10-07T00:41:54.395Z,20.90
2022-10-07T00:44:50.308Z,20.86
2022-10-07T00:47:33.237Z,20.85
2022-10-07T00:50:20.784Z,20.79
2022-10-07T00:53:05.844Z,20.78
2022-10-07T00:55:35.981Z,20.79
2022-10-07T00:58:10.653Z,20.82
2022-10-07T01:00:41.326Z,20.73
2022-10-07T01:03:10.069Z,20.64
2022-10-07T01:05:38.433Z,20.67
2022-10-07T01:08:06.992Z,20.58
2022-10-07T01:11:27.094Z,20.62
2022-10-07T01:14:10.386Z,20.61
2022-10-07T01:17:09.140Z,20.48
2022-10-07T01:20:15.740Z,20.40
2022-10-07T01:23:12.738Z,20.38
2022-10-07T01:26:08.262Z,20.44
2022-10-07T01:28:40.221Z,20.36
2022-10-07T01:31:12.937Z,20.31
2022-10-07T01:33:44.214Z,20.20
2022-10-07T01:36:17.244Z,20.27
2022-10-07T01:38:56.144Z,20.13
2022-10-07T01:41:25.455Z,20.23
2022-10-07T01:43:55.369Z,20.29
2022-10-07T01:46:25.822Z,20.29
2022-10-07T01:48:55.610Z,20.31
2022-10-07T01:51:28.659Z,20.40
2022-10-07T01:54:09.487Z,20.40
2022-10-07T01:56:37.964Z,20.45
2022-10-07T01:59:26.162Z,20.36
2022-10-07T02:02:04.633Z,20.37
2022-10-07T02:05:03.511Z,20.40
2022-10-07T02:07:36.181Z,20.38
2022-10-07T02:10:16.935Z,20.44
2022-10-07T02:13:21.070Z,20.41
2022-10-07T02:15:59.881Z,20.38
2022-10-07T02:18:31.962Z,20.36
2022-10-07T02:21:04.555Z,20.36
2022-10-07T02:23:37.665Z,20.23
2022-10-07T02:26:15.306Z,20.28
2022-10-07T02:28:54.359Z,20.23
2022-10-07T02:31:52.774Z,20.27
2022-10-07T02:34:39.849Z,20.23
2022-10-07T02:37:39.140Z,20.21
2022-10-07T02:40:26.807Z,20.23
2022-10-07T02:43:10.383Z,20.20
2022-10-07T02:45:47.534Z,20.29
2022-10-07T02:48:38.321Z,20.22
2022-10-07T02:51:11.941Z,20.16
2022-10-07T02:53:41.929Z,20.13
2022-10-07T02:56:10.319Z,20.15
2022-10-07T02:58:46.192Z,20.19
2022-10-07T03:01:21.703Z,20.16
2022-10-07T03:03:50.800Z,20.22
2022-10-07T03:06:19.599Z,20.14
2022-10-07T03:08:48.674Z,20.15
2022-10-07T03:11:17.300Z,20.19
2022-10-07T03:13:50.509Z,20.22
2022-10-07T03:16:20.460Z,20.17
2022-10-07T03:18:48.020Z,20.24
2022-10-07T03:21:40.880Z,20.22
2022-10-07T03:24:09.575Z,20.24
2022-10-07T03:26:42.992Z,20.28
2022-10-07T03:29:14.506Z,20.28
2022-10-07T03:31:43.287Z,20.28
2022-10-07T03:34:11.926Z,20.20
2022-10-07T03:36:43.265Z,20.21
2022-10-07T03:39:12.747Z,20.21
2022-10-07T03:41:42.778Z,20.08
2022-10-07T03:44:12.294Z,20.14
2022-10-07T03:46:40.737Z,20.14
2022-10-07T03:49:09.070Z,20.15
2022-10-07T03:51:37.455Z,20.07
2022-10-07T03:54:11.522Z,20.16
2022-10-07T03:56:40.721Z,20.16
2022-10-07T03:59:08.760Z,20.13
2022-10-07T04:01:37.926Z,20.07
2022-10-07T04:04:06.569Z,20.07
2022-10-07T04:06:37.394Z,20.12
2022-10-07T04:09:10.181Z,20.05
2022-10-07T04:11:41.254Z,20.10
2022-10-07T04:14:09.838Z,20.14
2022-10-07T04:16:48.727Z,20.16
2022-10-07T04:19:26.532Z,20.09
2022-10-07T04:22:08.458Z,20.03
2022-10-07T04:25:08.889Z,20.10
2022-10-07T04:27:51.622Z,20.00
2022-10-07T04:30:22.393Z,20.01
2022-10-07T04:32:51.609Z,20.00
2022-10-07T04:35:23.382Z,19.86
2022-10-07T04:37:55.001Z,19.97
2022-10-07T04:40:28.116Z,20.03
2022-10-07T04:43:15.030Z,20.10
2022-10-07T04:45:44.173Z,20.14
2022-10-07T04:48:13.002Z,20.13
2022-10-07T04:50:41.662Z,20.11
2022-10-07T04:53:12.869Z,20.17
2022-10-07T04:55:44.819Z,20.18
2022-10-07T04:58:14.303Z,20.20
2022-10-07T05:00:48.511Z,20.16
2022-10-07T05:03:20.232Z,20.18
2022-10-07T05:05:53.306Z,20.21
2022-10-07T05:08:23.401Z,20.17
2022-10-07T05:10:58.643Z,20.09
2022-10-07T05:13:30.729Z,20.14
2022-10-07T05:16:01.784Z,20.15
2022-10-07T05:18:33.995Z,20.19
2022-10-07T05:21:10.046Z,20.24
2022-10-07T05:23:43.522Z,20.12
2022-10-07T05:26:25.174Z,20.10
2022-10-07T05:29:01.856Z,20.13
2022-10-07T05:31:36.760Z,20.20
2022-10-07T05:34:06.211Z,20.14
2022-10-07T05:36:35.358Z,20.22
2022-10-07T05:39:05.988Z,20.27
2022-10-07T05:41:48.842Z,20.30
2022-10-07T05:44:20.660Z,20.33
2022-10-07T05:46:53.094Z,20.29
2022-10-07T05:49:27.902Z,20.20
2022-10-07T05:51:59.279Z,20.11
2022-10-07T05:54:27.948Z,20.10
2022-10-07T05:56:58.628Z,20.12
2022-10-07T05:59:36.277Z,20.18
2022-10-07T06:02:09.875Z,20.22
2022-10-07T06:04:39.374Z,20.24
2022-10-07T06:07:09.002Z,20.26
2022-10-07T06:09:55.784Z,20.30
2022-10-07T06:12:45.891Z,20.31
2022-10-07T06:15:14.902Z,20.28
2022-10-07T06:17:53.252Z,20.28
2022-10-07T06:20:22.015Z,20.19
2022-10-07T06:22:54.649Z,20.20
2022-10-07T06:25:22.586Z,20.16
2022-10-07T06:27:54.083Z,20.13
2022-10-07T06:30:24.315Z,20.15
2022-10-07T06:32:52.065Z,20.14
2022-10-07T06:35:20.356Z,20.12
2022-10-07T06:37:50.391Z,20.07
2022-10-07T06:40:19.312Z,20.11
2022-10-07T06:42:47.786Z,20.12
2022-10-07T06:45:34.471Z,20.05
2022-10-07T06:48:02.935Z,20.02
2022-10-07T06:50:32.144Z,20.05
2022-10-07T06:53:00.888Z,20.03
2022-10-07T06:55:31.904Z,20.01
2022-10-07T06:58:00.336Z,20.03
2022-10-07T07:00:39.309Z,20.04
2022-10-07T07:03:07.337Z,20.08
2022-10-07T07:05:41.407Z,19.89
2022-10-07T07:08:17.611Z,19.90
2022-10-07T07:10:46.531Z,19.86
2022-10-07T07:13:15.148Z,19.75
2022-10-07T07:15:43.827Z,19.72
2022-10-07T07:18:12.309Z,19.68
2022-10-07T07:20:40.900Z,19.62
2022-10-07T07:23:16.370Z,19.65
2022-10-07T07:25:46.733Z,19.63
2022-10-07T07:28:19.462Z,19.66
2022-10-07T07:30:49.757Z,19.57
2022-10-07T07:33:21.664Z,19.63
2022-10-07T07:35:49.531Z,19.53
2022-10-07T07:38:24.808Z,19.55
2022-10-07T07:40:55.482Z,19.62
2022-10-07T07:43:24.129Z,19.64
2022-10-07T07:45:52.964Z,19.59
2022-10-07T07:48:20.711Z,19.52
2022-10-07T07:50:48.723Z,19.55
2022-10-07T07:53:25.191Z,19.57
2022-10-07T07:55:58.650Z,19.52
2022-10-07T07:58:30.002Z,19.46
2022-10-07T08:01:08.814Z,19.53
2022-10-07T08:03:38.245Z,19.59
2022-10-07T08:06:08.359Z,19.59
2022-10-07T08:08:36.108Z,19.50
2022-10-07T08:11:11.979Z,19.47
2022-10-07T08:13:42.708Z,19.38
2022-10-07T08:16:16.188Z,19.51
2022-10-07T08:18:47.655Z,19.54
2022-10-07T08:21:20.435Z,19.73
2022-10-07T08:23:56.783Z,19.76
2022-10-07T08:26:30.575Z,19.85
2022-10-07T08:29:01.831Z,19.87
2022-10-07T08:31:30.332Z,19.78
2022-10-07T08:34:00.413Z,19.77
2022-10-07T08:36:38.182Z,19.70
2022-10-07T08:39:09.566Z,19.64
2022-10-07T08:41:53.285Z,19.74
2022-10-07T08:44:49.785Z,19.89
2022-10-07T08:47:51.565Z,20.03
2022-10-07T08:50:20.050Z,20.03
2022-10-07T08:53:08.677Z,20.15
2022-10-07T08:55:59.465Z,20.17
2022-10-07T08:58:44.133Z,19.96
2022-10-07T09:01:22.713Z,19.93
2022-10-07T09:04:13.255Z,19.92
2022-10-07T09:06:47.776Z,19.95
2022-10-07T09:09:39.697Z,19.92
2022-10-07T09:12:18.463Z,20.09
2022-10-07T09:14:48.513Z,20.08
2022-10-07T09:17:35.017Z,20.19
2022-10-07T09:20:14.148Z,20.22
2022-10-07T09:22:44.824Z,20.19
2022-10-07T09:25:12.055Z,20.22
2022-10-07T09:27:39.914Z,20.32
2022-10-07T09:30:12.686Z,20.36
2022-10-07T09:32:43.629Z,20.29
2022-10-07T09:35:22.559Z,20.37
2022-10-07T09:38:29.314Z,20.49
2022-10-07T09:41:25.799Z,20.51
2022-10-07T09:46:49.571Z,20.66
2022-10-07T09:49:28.868Z,20.66
2022-10-07T09:52:08.685Z,20.69
2022-10-07T09:54:37.364Z,20.74
2022-10-07T09:57:06.495Z,20.71
2022-10-07T09:59:38.560Z,20.72
2022-10-07T10:02:29.026Z,20.80
2022-10-07T10:04:58.518Z,20.61
2022-10-07T10:07:27.717Z,20.55
2022-10-07T10:10:04.848Z,20.43
2022-10-07T10:12:47.063Z,20.36
2022-10-07T10:15:25.714Z,20.37
2022-10-07T10:17:58.984Z,20.40
2022-10-07T10:20:33.070Z,20.39
2022-10-07T10:23:10.536Z,20.43
2022-10-07T10:27:19.391Z,20.33
2022-10-07T10:30:15.927Z,20.34
2022-10-07T10:33:07.417Z,20.33
2022-10-07T10:36:02.464Z,20.44
2022-10-07T10:38:34.221Z,20.31
2022-10-07T10:41:26.821Z,20.37
2022-10-07T10:44:40.066Z,20.48
2022-10-07T10:47:13.397Z,20.44
2022-10-07T10:50:15.479Z,20.53
2022-10-07T10:52:59.203Z,20.61
2022-10-07T10:56:26.623Z,20.70
2022-10-07T10:59:09.742Z,20.69
2022-10-07T11:01:43.224Z,20.75
2022-10-07T11:04:11.047Z,20.69
2022-10-07T11:06:42.924Z,20.75
2022-10-07T11:09:52.895Z,20.82
2022-10-07T11:12:37.469Z,20.83
2022-10-07T11:15:25.093Z,20.82
2022-10-07T11:18:23.535Z,20.80
2022-10-07T11:20:59.720Z,20.89
2022-10-07T11:24:23.372Z,20.94
2022-10-07T11:27:09.118Z,20.80
2022-10-07T11:29:49.977Z,20.80
2022-10-07T11:32:43.704Z,20.82
2022-10-07T11:35:34.433Z,20.84
2022-10-07T11:38:06.994Z,20.81
2022-10-07T11:41:08.720Z,20.86
2022-10-07T11:43:51.209Z,20.86
2022-10-07T11:46:39.988Z,20.81
2022-10-07T11:49:45.793Z,20.77
2022-10-07T11:52:25.110Z,20.83
2022-10-07T11:55:08.880Z,20.84
2022-10-07T11:57:43.665Z,20.79
2022-10-07T12:00:44.182Z,20.70
2022-10-07T12:03:28.592Z,20.63
2022-10-07T12:05:58.749Z,20.69
2022-10-07T12:08:45.223Z,20.71
2022-10-07T12:11:36.390Z,20.67
2022-10-07T12:14:32.951Z,20.78
2022-10-07T12:17:21.933Z,20.77
2022-10-07T12:20:40.034Z,20.86
2022-10-07T12:23:44.194Z,20.81
2022-10-07T12:26:53.845Z,20.88
2022-10-07T12:30:03.400Z,21.04
2022-10-07T12:33:17.948Z,21.25
2022-10-07T13:03:29.303Z,22.05
2022-10-07T13:47:08.283Z,21.87
2022-10-07T13:53:35.367Z,21.99
2022-10-07T13:56:15.278Z,21.95
2022-10-07T13:58:46.307Z,21.85
2022-10-07T14:01:34.531Z,22.00
2022-10-07T14:05:23.524Z,21.98
2022-10-07T14:08:30.808Z,21.95
2022-10-07T14:11:07.558Z,21.96
2022-10-07T14:13:44.056Z,21.92
2022-10-07T14:16:30.498Z,21.96
2022-10-07T14:19:00.941Z,21.89
2022-10-07T14:21:30.899Z,21.87
2022-10-07T14:24:08.817Z,21.96
2022-10-07T14:26:48.178Z,21.94
2022-10-07T14:29:35.729Z,21.79
2022-10-07T14:32:37.123Z,21.84
2022-10-07T14:35:20.698Z,21.84
2022-10-07T14:37:49.328Z,21.78
2022-10-07T14:40:52.465Z,21.77
2022-10-07T14:43:45.332Z,21.77
2022-10-07T14:46:25.939Z,21.61
2022-10-07T14:48:54.443Z,21.69
2022-10-07T14:51:29.827Z,21.75
2022-10-07T14:54:03.419Z,21.75
2022-10-07T14:56:40.219Z,21.68
2022-10-07T14:59:14.710Z,21.74
2022-10-07T15:01:44.246Z,21.83
2022-10-07T15:04:15.438Z,21.86
2022-10-07T15:06:46.321Z,21.94
2022-10-07T15:09:17.555Z,21.95
2022-10-07T15:11:45.302Z,22.03
2022-10-07T15:14:12.963Z,22.06
2022-10-07T15:16:42.003Z,22.11
2022-10-07T15:19:12.168Z,22.05
2022-10-07T15:21:39.868Z,22.02
2022-10-07T15:24:07.288Z,22.03
2022-10-07T15:26:35.531Z,22.12
2022-10-07T15:29:03.241Z,22.14
2022-10-07T15:31:30.813Z,22.15
2022-10-07T15:33:59.077Z,22.14
2022-10-07T15:36:30.695Z,22.20
2022-10-07T15:39:03.245Z,22.19
2022-10-07T15:41:38.731Z,22.22
2022-10-07T15:44:19.449Z,22.23
2022-10-07T15:46:53.352Z,22.26
2022-10-07T15:49:20.974Z,22.27
2022-10-07T15:51:48.677Z,22.33
2022-10-07T15:54:16.696Z,22.32
2022-10-07T15:56:45.619Z,22.32
2022-10-07T15:59:20.470Z,22.32
2022-10-07T16:01:52.188Z,22.28
2022-10-07T16:04:23.604Z,22.31
2022-10-07T16:06:55.240Z,22.37
2022-10-07T16:09:26.943Z,22.35
2022-10-07T16:11:54.770Z,22.42
2022-10-07T16:14:25.089Z,22.39
2022-10-07T16:16:53.194Z,22.40
2022-10-07T16:19:21.131Z,22.45
2022-10-07T16:21:48.536Z,22.46
2022-10-07T16:24:18.465Z,22.49
2022-10-07T16:26:47.465Z,22.38
2022-10-07T16:29:39.111Z,22.44
2022-10-07T16:32:11.300Z,22.38
2022-10-07T16:34:43.762Z,22.37
2022-10-07T16:37:13.167Z,22.35
2022-10-07T16:39:40.598Z,22.37
2022-10-07T16:42:08.412Z,22.35
2022-10-07T16:44:36.403Z,22.39
2022-10-07T16:47:04.061Z,22.38
2022-10-07T16:49:31.818Z,22.43
2022-10-07T16:51:59.662Z,22.41
2022-10-07T16:54:30.137Z,22.43
2022-10-07T16:57:00.924Z,22.40
2022-10-07T16:59:28.644Z,22.39
2022-10-07T17:01:57.167Z,22.40
2022-10-07T17:04:25.780Z,22.40
2022-10-07T17:06:54.593Z,22.37
2022-10-07T17:09:28.350Z,22.37
2022-10-07T17:11:57.625Z,22.40
2022-10-07T17:14:27.612Z,22.37
2022-10-07T17:16:57.497Z,22.40
2022-10-07T17:19:28.338Z,22.39
2022-10-07T17:21:59.895Z,22.38
2022-10-07T17:24:54.834Z,22.42
2022-10-07T17:27:29.868Z,22.38
2022-10-07T17:29:57.796Z,22.39
2022-10-07T17:32:32.311Z,22.37
2022-10-07T17:35:09.941Z,22.37
2022-10-07T17:37:39.980Z,22.32
2022-10-07T17:40:08.602Z,22.26
2022-10-07T17:42:46.836Z,22.25
2022-10-07T17:49:13.017Z,22.19
2022-10-07T17:56:19.106Z,22.15
2022-10-07T17:59:46.521Z,22.08
2022-10-07T18:02:29.499Z,22.07
2022-10-07T18:10:04.846Z,21.97
2022-10-07T18:13:23.671Z,21.84
2022-10-07T18:17:01.793Z,21.85
2022-10-07T18:20:18.660Z,21.88
2022-10-07T18:23:12.956Z,21.81
2022-10-07T18:36:08.284Z,21.80
2022-10-07T18:38:43.332Z,21.73
2022-10-07T18:41:20.252Z,21.70
2022-10-07T18:43:56.808Z,21.67
2022-10-07T18:46:31.035Z,21.54
2022-10-07T18:48:58.661Z,21.54
2022-10-07T18:51:26.259Z,21.60
2022-10-07T18:54:01.727Z,21.65
2022-10-07T18:56:30.094Z,21.60
2022-10-07T18:58:58.962Z,21.63
2022-10-07T19:01:32.099Z,21.59
2022-10-07T19:04:04.637Z,21.62
2022-10-07T19:06:50.630Z,21.62
2022-10-07T19:09:26.793Z,21.66
2022-10-07T19:11:57.085Z,21.67
2022-10-07T19:14:28.532Z,21.72
2022-10-07T19:16:58.039Z,21.76
2022-10-07T19:19:25.912Z,21.76
2022-10-07T19:22:04.978Z,21.76
2022-10-07T19:24:54.847Z,21.64
2022-10-07T19:27:43.025Z,21.62
2022-10-07T19:30:34.208Z,21.50
2022-10-07T19:33:05.243Z,21.55
2022-10-07T19:35:37.888Z,21.61
2022-10-07T19:38:25.700Z,21.56
2022-10-07T19:41:09.785Z,21.63
2022-10-07T19:43:53.060Z,21.68
2022-10-07T19:46:26.973Z,21.64
2022-10-07T19:49:00.785Z,21.55
2022-10-07T19:51:36.821Z,21.60
2022-10-07T19:54:20.877Z,21.55
2022-10-07T19:56:58.623Z,21.62
2022-10-07T19:59:27.198Z,21.62
2022-10-07T20:01:58.796Z,21.59
2022-10-07T20:04:29.338Z,21.61
2022-10-07T20:06:59.656Z,21.62
2022-10-07T20:09:27.474Z,21.64
2022-10-07T20:11:56.304Z,21.69
2022-10-07T20:14:26.119Z,21.62
2022-10-07T20:17:02.441Z,21.67
2022-10-07T20:19:31.268Z,21.57
2022-10-07T20:22:01.933Z,21.57
2022-10-07T20:24:30.709Z,21.54
2022-10-07T20:27:07.127Z,21.54
2022-10-07T20:29:55.507Z,21.56
2022-10-07T20:35:24.892Z,21.56
2022-10-07T20:37:52.968Z,21.56
2022-10-07T20:40:42.811Z,21.60
2022-10-07T20:43:30.341Z,21.57
2022-10-07T20:46:15.174Z,21.58
2022-10-07T20:48:46.283Z,21.58
2022-10-07T20:51:14.370Z,21.59
2022-10-07T20:53:41.646Z,21.58
2022-10-07T20:56:09.920Z,21.51
2022-10-07T20:58:37.614Z,21.54
2022-10-07T21:01:18.713Z,21.47
2022-10-07T21:03:47.520Z,21.49
2022-10-07T21:06:21.832Z,21.45
2022-10-07T21:08:58.912Z,21.47
2022-10-07T21:11:27.813Z,21.46
2022-10-07T21:13:56.630Z,21.43
2022-10-07T21:16:27.123Z,21.38
2022-10-07T21:18:54.933Z,21.36
2022-10-07T21:21:23.344Z,21.30
2022-10-07T21:23:51.894Z,21.26
2022-10-07T21:26:21.109Z,21.20
2022-10-07T21:28:53.996Z,21.20
2022-10-07T21:31:37.838Z,21.20
2022-10-07T21:34:17.558Z,21.28
2022-10-07T21:37:21.472Z,21.24
2022-10-07T21:40:25.460Z,21.26
2022-10-07T21:42:59.363Z,21.22
2022-10-07T21:45:34.358Z,21.29
2022-10-07T21:48:04.965Z,21.28
2022-10-07T21:50:47.570Z,21.28
2022-10-07T21:53:58.759Z,21.11
2022-10-07T21:56:35.950Z,21.11
2022-10-07T21:59:04.434Z,21.09
2022-10-07T22:01:33.592Z,21.11
2022-10-07T22:04:06.031Z,21.15
2022-10-07T22:07:08.200Z,21.21
2022-10-07T22:09:36.761Z,21.18
2022-10-07T22:12:08.529Z,21.12
2022-10-07T22:14:41.390Z,21.04
2022-10-07T22:17:12.242Z,20.97
2022-10-07T22:19:43.781Z,20.87
2022-10-07T22:22:12.977Z,20.80
2022-10-07T22:24:41.492Z,20.83
2022-10-07T22:27:09.567Z,20.84
2022-10-07T22:29:38.776Z,20.91
2022-10-07T22:32:06.432Z,20.98
2022-10-07T22:34:52.337Z,20.99
2022-10-07T22:37:21.328Z,21.04
2022-10-07T22:39:52.453Z,21.07
2022-10-07T22:42:19.830Z,21.07
2022-10-07T22:44:47.471Z,21.09
2022-10-07T22:47:26.863Z,21.09
2022-10-07T22:49:55.573Z,21.06
2022-10-07T22:52:23.059Z,21.02
2022-10-07T22:54:51.527Z,21.01
2022-10-07T22:57:19.713Z,21.03
2022-10-07T22:59:48.212Z,21.05
2022-10-07T23:02:15.999Z,20.99
2022-10-07T23:04:49.244Z,21.01
2022-10-07T23:07:16.622Z,21.00
2022-10-07T23:09:50.080Z,20.91
2022-10-07T23:12:17.424Z,20.95
2022-10-07T23:14:45.457Z,20.95
2022-10-07T23:17:13.581Z,20.88
2022-10-07T23:19:48.393Z,20.83
2022-10-07T23:22:16.014Z,20.85
2022-10-07T23:24:43.743Z,20.83
2022-10-07T23:27:23.673Z,20.79
2022-10-07T23:29:51.307Z,20.82
2022-10-07T23:32:20.752Z,20.75
2022-10-07T23:34:48.549Z,20.72
2022-10-07T23:37:15.744Z,20.69
2022-10-07T23:39:44.016Z,20.69
2022-10-07T23:42:15.094Z,20.70
2022-10-07T23:44:52.174Z,20.74
2022-10-07T23:47:23.368Z,20.73
2022-10-07T23:49:52.507Z,20.68
2022-10-07T23:52:35.598Z,20.71
2022-10-07T23:55:04.652Z,20.66
2022-10-07T23:57:52.512Z,20.63
